Argyle, Georgia
Current Conditions -  °F | °C
As of 12:15 PM on Friday 19 Dec 2014 (Local Time) from KHOE Reporting Station
Clear Clear  
Wind Chill: 64°   Ceiling: Unl
Heat Index: 64°   Visibility: 10mi
Dew Point: 45°   Wind: 3mph
Humidity: 49%   Direction: 100°E
Pressure: 30.14"   Gusts: NA
Location:  31.07°N, 82.65°W
Report Text: KHOE 191715Z AUTO 10003KT 10SM CLR 18/07 A3014 RMK AO2
Loading
Personal Weather Stations






























Interactive Weather Map New forecast layout! Learn more

10-Day Weather Forecast

Advertisements
Track Severe Weather on mobile